createdAt,value
2023-01-08T00:01:44.977Z,13.23
2023-01-08T00:04:11.463Z,13.08
2023-01-08T00:06:37.915Z,13.14
2023-01-08T00:09:04.410Z,12.89
2023-01-08T00:11:30.862Z,12.80
2023-01-08T00:13:57.250Z,13.07
2023-01-08T00:16:23.739Z,13.21
2023-01-08T00:18:50.220Z,12.98
2023-01-08T00:21:16.737Z,12.91
2023-01-08T00:23:43.210Z,12.86
2023-01-08T00:26:10.647Z,12.53
2023-01-08T00:28:38.267Z,13.07
2023-01-08T00:31:06.137Z,13.09
2023-01-08T00:33:33.078Z,12.82
2023-01-08T00:35:59.973Z,12.85
2023-01-08T00:38:27.721Z,12.91
2023-01-08T00:40:54.550Z,12.57
2023-01-08T00:43:21.197Z,12.64
2023-01-08T00:45:47.748Z,12.97
2023-01-08T00:48:14.204Z,12.74
2023-01-08T00:50:40.603Z,13.06
2023-01-08T00:53:07.013Z,12.82
2023-01-08T00:55:33.411Z,13.36
2023-01-08T00:57:59.832Z,13.67
2023-01-08T01:00:26.331Z,13.28
2023-01-08T01:02:52.744Z,12.77
2023-01-08T01:05:19.346Z,12.87
2023-01-08T01:07:46.279Z,13.08
2023-01-08T01:10:15.511Z,13.23
2023-01-08T01:12:42.370Z,13.30
2023-01-08T01:15:12.137Z,13.22
2023-01-08T01:17:39.716Z,13.18
2023-01-08T01:20:08.327Z,13.43
2023-01-08T01:22:34.987Z,13.49
2023-01-08T01:25:01.597Z,13.09
2023-01-08T01:27:28.123Z,13.67
2023-01-08T01:29:54.843Z,13.48
2023-01-08T01:32:21.280Z,13.46
2023-01-08T01:34:47.695Z,13.57
2023-01-08T01:37:15.592Z,13.43
2023-01-08T01:39:49.008Z,13.51
2023-01-08T01:42:36.477Z,13.57
2023-01-08T01:45:17.108Z,13.38
2023-01-08T01:47:47.617Z,13.21
2023-01-08T01:50:21.624Z,13.36
2023-01-08T01:53:26.464Z,13.29
2023-01-08T01:55:53.544Z,13.44
2023-01-08T01:58:26.082Z,13.24
2023-01-08T02:00:54.165Z,13.46
2023-01-08T02:03:24.604Z,12.97
2023-01-08T02:05:56.192Z,13.09
2023-01-08T02:08:40.109Z,13.20
2023-01-08T02:11:12.760Z,13.45
2023-01-08T02:13:45.435Z,13.37
2023-01-08T02:16:21.565Z,13.18
2023-01-08T02:18:53.170Z,13.41
2023-01-08T02:21:43.993Z,13.19
2023-01-08T02:24:23.840Z,13.20
2023-01-08T02:26:55.196Z,13.12
2023-01-08T02:29:26.029Z,13.38
2023-01-08T02:31:52.604Z,13.68
2023-01-08T02:34:19.019Z,13.73
2023-01-08T02:36:51.279Z,13.72
2023-01-08T02:39:49.152Z,13.76
2023-01-08T02:42:38.654Z,13.18
2023-01-08T02:45:23.854Z,13.33
2023-01-08T02:47:55.698Z,13.19
2023-01-08T02:50:22.172Z,13.29
2023-01-08T02:52:59.645Z,13.29
2023-01-08T02:55:28.262Z,13.23
2023-01-08T02:57:55.249Z,13.55
2023-01-08T03:00:22.862Z,13.42
2023-01-08T03:02:55.483Z,13.44
2023-01-08T03:05:27.898Z,13.57
2023-01-08T03:07:55.613Z,13.47
2023-01-08T03:10:26.038Z,13.17
2023-01-08T03:13:02.292Z,13.66
2023-01-08T03:15:35.234Z,13.69
2023-01-08T03:18:09.448Z,13.79
2023-01-08T03:20:37.960Z,13.07
2023-01-08T03:23:09.285Z,13.65
2023-01-08T03:25:39.952Z,13.24
2023-01-08T03:28:11.707Z,12.76
2023-01-08T03:30:41.646Z,13.62
2023-01-08T03:33:11.208Z,13.13
2023-01-08T03:35:41.468Z,13.51
2023-01-08T03:38:20.162Z,13.42
2023-01-08T03:40:52.585Z,13.51
2023-01-08T03:43:20.380Z,13.23
2023-01-08T03:45:53.733Z,13.76
2023-01-08T03:48:21.778Z,13.11
2023-01-08T03:50:49.228Z,13.46
2023-01-08T03:53:15.772Z,13.78
2023-01-08T03:55:42.649Z,13.61
2023-01-08T03:58:09.217Z,13.55
2023-01-08T04:00:35.809Z,13.38
2023-01-08T04:03:05.008Z,13.47
2023-01-08T04:05:32.195Z,13.57
2023-01-08T04:07:58.801Z,13.51
2023-01-08T04:10:25.954Z,13.58
2023-01-08T04:12:52.699Z,13.38
2023-01-08T04:15:20.537Z,13.59
2023-01-08T04:17:46.943Z,13.73
2023-01-08T04:20:13.402Z,13.72
2023-01-08T04:22:39.890Z,13.11
2023-01-08T04:25:06.966Z,13.21
2023-01-08T04:27:33.352Z,13.08
2023-01-08T04:29:59.829Z,13.26
2023-01-08T04:32:26.229Z,13.25
2023-01-08T04:34:52.641Z,13.21
2023-01-08T04:37:19.082Z,13.05
2023-01-08T04:39:45.538Z,13.42
2023-01-08T04:42:11.993Z,13.58
2023-01-08T04:44:38.483Z,13.01
2023-01-08T04:47:04.905Z,13.30
2023-01-08T04:49:31.301Z,13.53
2023-01-08T04:51:57.810Z,13.28
2023-01-08T04:54:24.336Z,13.77
2023-01-08T04:56:51.824Z,13.42
2023-01-08T04:59:18.389Z,13.53
2023-01-08T05:01:44.962Z,13.72
2023-01-08T05:04:11.686Z,12.97
2023-01-08T05:06:38.158Z,12.90
2023-01-08T05:09:04.581Z,13.23
2023-01-08T05:11:31.021Z,13.71
2023-01-08T05:13:57.993Z,13.86
2023-01-08T05:16:24.524Z,13.68
2023-01-08T05:18:51.160Z,13.59
2023-01-08T05:21:17.831Z,13.48
2023-01-08T05:23:47.084Z,13.36
2023-01-08T05:26:13.938Z,13.70
2023-01-08T05:28:40.474Z,13.82
2023-01-08T05:31:06.953Z,13.54
2023-01-08T05:33:33.446Z,13.61
2023-01-08T05:35:59.899Z,13.66
2023-01-08T05:38:26.319Z,13.80
2023-01-08T05:40:53.357Z,14.01
2023-01-08T05:43:20.013Z,13.81
2023-01-08T05:45:46.453Z,14.01
2023-01-08T05:48:12.874Z,13.76
2023-01-08T05:50:39.303Z,13.78
2023-01-08T05:53:07.612Z,13.56
2023-01-08T05:55:34.416Z,13.73
2023-01-08T05:58:02.680Z,13.81
2023-01-08T06:00:29.723Z,13.82
2023-01-08T06:02:56.178Z,13.69
2023-01-08T06:05:22.799Z,13.65
2023-01-08T06:07:49.312Z,13.58
2023-01-08T06:10:15.901Z,13.63
2023-01-08T06:12:42.538Z,13.59
2023-01-08T06:15:10.216Z,13.87
2023-01-08T06:17:36.666Z,13.73
2023-01-08T06:20:03.492Z,13.98
2023-01-08T06:22:30.181Z,13.79
2023-01-08T06:24:56.649Z,14.13
2023-01-08T06:27:23.076Z,14.22
2023-01-08T06:29:49.524Z,13.99
2023-01-08T06:32:16.106Z,13.77
2023-01-08T06:34:42.565Z,13.68
2023-01-08T06:37:08.995Z,13.38
2023-01-08T06:39:35.488Z,13.68
2023-01-08T06:42:02.071Z,13.75
2023-01-08T06:44:28.498Z,13.54
2023-01-08T06:46:55.004Z,13.44
2023-01-08T06:49:22.677Z,13.36
2023-01-08T06:51:49.096Z,13.30
2023-01-08T06:54:15.532Z,13.40
2023-01-08T06:56:53.055Z,13.32
2023-01-08T06:59:20.035Z,13.18
2023-01-08T07:01:46.626Z,13.23
2023-01-08T07:04:13.148Z,13.05
2023-01-08T07:06:39.648Z,13.14
2023-01-08T07:09:06.090Z,13.07
2023-01-08T07:11:33.489Z,13.11
2023-01-08T07:13:59.927Z,13.32
2023-01-08T07:16:26.404Z,13.06
2023-01-08T07:18:52.862Z,12.99
2023-01-08T07:21:20.967Z,13.16
2023-01-08T07:23:49.412Z,13.16
2023-01-08T07:26:15.917Z,13.30
2023-01-08T07:28:42.452Z,13.16
2023-01-08T07:31:09.709Z,13.33
2023-01-08T07:33:36.528Z,13.00
2023-01-08T07:36:02.992Z,13.04
2023-01-08T07:38:29.476Z,12.99
2023-01-08T07:40:57.951Z,12.88
2023-01-08T07:43:25.167Z,12.69
2023-01-08T07:45:51.759Z,12.65
2023-01-08T07:48:18.213Z,12.75
2023-01-08T07:50:45.068Z,12.92
2023-01-08T07:53:13.561Z,12.49
2023-01-08T07:55:40.047Z,12.77
2023-01-08T07:58:11.198Z,12.62
2023-01-08T08:00:38.337Z,12.55
2023-01-08T08:03:11.394Z,12.31
2023-01-08T08:05:38.355Z,12.45
2023-01-08T08:08:12.633Z,12.61
2023-01-08T08:10:40.552Z,12.26
2023-01-08T08:13:07.521Z,12.46
2023-01-08T08:15:35.352Z,12.64
2023-01-08T08:18:02.720Z,12.57
2023-01-08T08:20:29.407Z,12.42
2023-01-08T08:23:02.753Z,12.73
2023-01-08T08:25:29.549Z,12.65
2023-01-08T08:27:58.387Z,12.60
2023-01-08T08:30:26.673Z,12.33
2023-01-08T08:32:54.302Z,12.58
2023-01-08T08:35:22.136Z,12.55
2023-01-08T08:37:48.651Z,12.44
2023-01-08T08:40:15.099Z,12.68
2023-01-08T08:42:41.539Z,12.57
2023-01-08T08:45:08.448Z,12.56
2023-01-08T08:47:34.915Z,12.71
2023-01-08T08:50:02.197Z,12.54
2023-01-08T08:52:30.279Z,12.55
2023-01-08T08:54:56.713Z,12.79
2023-01-08T08:57:24.282Z,12.82
2023-01-08T08:59:50.696Z,12.81
2023-01-08T09:02:17.304Z,12.73
2023-01-08T09:04:43.800Z,12.64
2023-01-08T09:07:10.322Z,12.62
2023-01-08T09:09:36.697Z,12.72
2023-01-08T09:12:04.050Z,12.77
2023-01-08T09:14:30.442Z,12.72
2023-01-08T09:16:56.978Z,12.90
2023-01-08T09:19:23.525Z,12.93
2023-01-08T09:21:50.866Z,12.93
2023-01-08T09:24:17.407Z,12.99
2023-01-08T09:26:43.841Z,12.87
2023-01-08T09:29:10.408Z,12.90
2023-01-08T09:31:36.918Z,12.77
2023-01-08T09:34:03.530Z,12.88
2023-01-08T09:36:29.937Z,12.69
2023-01-08T09:38:56.378Z,12.94
2023-01-08T09:41:28.357Z,12.62
2023-01-08T09:43:58.063Z,12.81
2023-01-08T09:46:27.395Z,12.98
2023-01-08T09:48:58.626Z,12.95
2023-01-08T09:51:33.012Z,12.77
2023-01-08T09:53:59.696Z,12.93
2023-01-08T09:56:26.935Z,13.13
2023-01-08T09:58:55.589Z,12.92
2023-01-08T10:01:26.326Z,12.88
2023-01-08T10:03:58.248Z,13.05
2023-01-08T10:06:25.473Z,13.13
2023-01-08T10:08:52.612Z,12.93
2023-01-08T10:11:20.115Z,13.12
2023-01-08T10:13:52.616Z,12.87
2023-01-08T10:16:30.390Z,12.66
2023-01-08T10:18:58.585Z,12.83
2023-01-08T10:21:30.954Z,12.77
2023-01-08T10:23:57.405Z,12.88
2023-01-08T10:26:33.579Z,12.64
2023-01-08T10:29:14.105Z,12.71
2023-01-08T10:31:46.265Z,12.96
2023-01-08T10:34:23.999Z,12.77
2023-01-08T10:36:51.895Z,12.77
2023-01-08T10:39:25.611Z,13.18
2023-01-08T10:41:55.362Z,12.83
2023-01-08T10:44:23.501Z,13.07
2023-01-08T10:46:55.068Z,13.23
2023-01-08T10:49:33.376Z,13.11
2023-01-08T10:52:00.729Z,12.87
2023-01-08T10:54:39.095Z,13.08
2023-01-08T10:57:30.890Z,13.10
2023-01-08T10:59:57.374Z,13.12
2023-01-08T11:02:32.606Z,13.14
2023-01-08T11:04:59.377Z,12.52
2023-01-08T11:07:27.916Z,13.04
2023-01-08T11:09:54.974Z,13.32
2023-01-08T11:12:33.818Z,13.00
2023-01-08T11:15:00.687Z,13.22
2023-01-08T11:17:27.990Z,12.87
2023-01-08T11:19:55.871Z,12.84
2023-01-08T11:22:26.001Z,13.05
2023-01-08T11:24:54.105Z,13.09
2023-01-08T11:27:30.664Z,13.21
2023-01-08T11:30:21.019Z,12.76
2023-01-08T11:32:54.812Z,13.28
2023-01-08T11:35:26.074Z,13.46
2023-01-08T11:37:53.952Z,13.39
2023-01-08T11:40:31.994Z,13.20
2023-01-08T11:43:13.150Z,13.36
2023-01-08T11:46:03.973Z,12.93
2023-01-08T11:48:55.054Z,13.20
2023-01-08T11:52:21.390Z,13.38
2023-01-08T11:55:12.451Z,13.13
2023-01-08T11:57:52.129Z,13.58
2023-01-08T12:01:06.204Z,13.18
2023-01-08T12:04:20.033Z,13.53
2023-01-08T12:07:09.497Z,13.77
2023-01-08T12:09:41.996Z,13.51
2023-01-08T12:12:41.109Z,13.41
2023-01-08T12:15:33.123Z,13.65
2023-01-08T12:18:02.712Z,13.63
2023-01-08T12:20:46.280Z,13.46
2023-01-08T12:23:27.879Z,13.39
2023-01-08T12:25:57.373Z,13.68
2023-01-08T12:28:42.103Z,13.53
2023-01-08T12:31:18.710Z,13.54
2023-01-08T12:33:50.818Z,13.15
2023-01-08T12:36:37.063Z,13.23
2023-01-08T12:39:10.464Z,13.17
2023-01-08T12:41:39.776Z,13.39
2023-01-08T12:44:11.529Z,13.64
2023-01-08T12:46:43.277Z,13.49
2023-01-08T12:49:16.085Z,13.16
2023-01-08T12:51:51.325Z,13.37
2023-01-08T12:55:03.086Z,13.54
2023-01-08T12:57:38.828Z,13.76
2023-01-08T13:00:36.222Z,13.51
2023-01-08T13:03:06.309Z,13.62
2023-01-08T13:05:35.862Z,13.71
2023-01-08T13:08:28.472Z,13.27
2023-01-08T13:10:55.483Z,13.78
2023-01-08T13:13:36.561Z,13.94
2023-01-08T13:16:22.140Z,13.63
2023-01-08T13:19:21.915Z,13.82
2023-01-08T13:21:54.708Z,13.71
2023-01-08T13:24:30.165Z,13.95
2023-01-08T13:27:08.985Z,14.01
2023-01-08T13:29:42.598Z,13.85
2023-01-08T13:32:30.767Z,13.76
2023-01-08T13:35:15.660Z,14.22
2023-01-08T13:37:47.137Z,13.59
2023-01-08T13:40:35.072Z,13.97
2023-01-08T13:43:02.619Z,13.76
2023-01-08T13:45:30.675Z,12.81
2023-01-08T13:47:57.552Z,13.33
2023-01-08T13:50:28.644Z,13.20
2023-01-08T13:52:58.986Z,13.62
2023-01-08T13:55:30.464Z,12.60
2023-01-08T13:58:00.035Z,13.07
2023-01-08T14:00:31.217Z,13.70
2023-01-08T14:02:57.837Z,13.46
2023-01-08T14:05:34.594Z,13.50
2023-01-08T14:08:01.327Z,13.48
2023-01-08T14:10:30.995Z,13.28
2023-01-08T14:13:08.940Z,13.51
2023-01-08T14:15:35.914Z,13.16
2023-01-08T14:18:04.763Z,13.19
2023-01-08T14:20:38.200Z,13.49
2023-01-08T14:23:21.760Z,13.48
2023-01-08T14:25:49.569Z,13.42
2023-01-08T14:28:19.038Z,13.49
2023-01-08T14:30:54.369Z,13.33
2023-01-08T14:33:24.818Z,13.34
2023-01-08T14:35:51.858Z,13.31
2023-01-08T14:38:18.764Z,13.50
2023-01-08T14:40:57.695Z,13.56
2023-01-08T14:43:24.562Z,13.23
2023-01-08T14:45:53.561Z,13.32
2023-01-08T14:48:50.333Z,13.66
2023-01-08T14:51:23.748Z,13.55
2023-01-08T14:54:04.144Z,13.23
2023-01-08T14:56:33.852Z,13.45
2023-01-08T14:59:00.716Z,13.13
2023-01-08T15:01:29.962Z,13.27
2023-01-08T15:04:19.573Z,12.97
2023-01-08T15:06:46.567Z,13.34
2023-01-08T15:09:33.234Z,13.02
2023-01-08T15:12:07.664Z,13.24
2023-01-08T15:14:37.609Z,13.34
2023-01-08T15:17:19.571Z,13.39
2023-01-08T15:19:57.544Z,13.45
2023-01-08T15:22:31.450Z,13.37
2023-01-08T15:25:07.577Z,13.45
2023-01-08T15:27:36.948Z,13.53
2023-01-08T15:30:04.983Z,13.57
2023-01-08T15:32:39.098Z,13.33
2023-01-08T15:35:16.373Z,13.25
2023-01-08T15:37:43.080Z,13.61
2023-01-08T15:40:11.664Z,13.73
2023-01-08T15:42:56.789Z,13.59
2023-01-08T15:45:37.247Z,13.24
2023-01-08T15:48:04.641Z,13.37
2023-01-08T15:50:38.797Z,13.35
2023-01-08T15:53:24.666Z,13.29
2023-01-08T15:55:51.691Z,13.25
2023-01-08T15:58:18.851Z,12.97
2023-01-08T16:00:46.275Z,12.67
2023-01-08T16:03:13.876Z,12.52
2023-01-08T16:05:40.425Z,12.62
2023-01-08T16:08:07.071Z,12.32
2023-01-08T16:10:34.104Z,12.46
2023-01-08T16:13:01.628Z,12.61
2023-01-08T16:15:30.596Z,12.36
2023-01-08T16:17:58.068Z,12.31
2023-01-08T16:20:24.770Z,12.07
2023-01-08T16:22:51.396Z,12.43
2023-01-08T16:25:18.025Z,12.40
2023-01-08T16:27:44.439Z,12.28
2023-01-08T16:30:15.063Z,12.24
2023-01-08T16:32:42.096Z,12.45
2023-01-08T16:35:09.681Z,12.63
2023-01-08T16:37:36.488Z,12.34
2023-01-08T16:40:03.218Z,12.01
2023-01-08T16:42:29.659Z,11.87
2023-01-08T16:44:56.107Z,12.14
2023-01-08T16:47:22.609Z,12.09
2023-01-08T16:49:50.375Z,12.00
2023-01-08T16:52:17.550Z,12.02
2023-01-08T16:54:45.057Z,11.77
2023-01-08T16:57:11.483Z,11.93
2023-01-08T16:59:37.906Z,12.14
2023-01-08T17:02:04.439Z,12.13
2023-01-08T17:04:31.263Z,12.05
2023-01-08T17:06:58.076Z,12.30
2023-01-08T17:09:25.511Z,12.08
2023-01-08T17:11:51.974Z,12.00
2023-01-08T17:14:18.508Z,11.74
2023-01-08T17:16:45.478Z,11.69
2023-01-08T17:19:12.746Z,11.82
2023-01-08T17:21:40.313Z,11.66
2023-01-08T17:24:07.524Z,11.83
2023-01-08T17:26:34.205Z,11.31
2023-01-08T17:29:00.943Z,11.51
2023-01-08T17:31:27.472Z,11.52
2023-01-08T17:33:54.530Z,11.83
2023-01-08T17:36:24.249Z,11.57
2023-01-08T17:38:52.958Z,11.60
2023-01-08T17:41:39.123Z,11.74
2023-01-08T17:44:07.145Z,11.74
2023-01-08T17:46:42.377Z,11.61
2023-01-08T17:49:11.049Z,11.85
2023-01-08T17:51:38.605Z,11.80
2023-01-08T17:54:05.093Z,12.09
2023-01-08T17:56:31.506Z,12.13
2023-01-08T17:58:57.948Z,11.83
2023-01-08T18:01:24.558Z,12.09
2023-01-08T18:03:52.051Z,12.03
2023-01-08T18:06:18.486Z,11.68
2023-01-08T18:08:44.925Z,12.05
2023-01-08T18:11:11.391Z,12.02
2023-01-08T18:13:37.927Z,12.04
2023-01-08T18:16:06.776Z,11.91
2023-01-08T18:18:33.966Z,11.89
2023-01-08T18:21:00.522Z,12.13
2023-01-08T18:23:27.601Z,12.20
2023-01-08T18:25:54.018Z,12.37
2023-01-08T18:28:20.887Z,12.20
2023-01-08T18:30:47.372Z,12.29
2023-01-08T18:33:14.769Z,12.46
2023-01-08T18:35:41.741Z,12.44
2023-01-08T18:38:15.704Z,12.28
2023-01-08T18:40:45.721Z,12.29
2023-01-08T18:43:12.770Z,12.36
2023-01-08T18:45:39.534Z,12.33
2023-01-08T18:48:07.667Z,12.40
2023-01-08T18:50:34.121Z,12.34
2023-01-08T18:53:00.630Z,12.03
2023-01-08T18:55:27.029Z,12.07
2023-01-08T18:57:53.464Z,11.86
2023-01-08T19:00:20.748Z,11.76
2023-01-08T19:02:47.245Z,11.85
2023-01-08T19:05:13.685Z,11.88
2023-01-08T19:07:41.407Z,11.55
2023-01-08T19:10:12.680Z,11.71
2023-01-08T19:12:39.194Z,11.68
2023-01-08T19:15:06.671Z,11.77
2023-01-08T19:17:33.572Z,11.68
2023-01-08T19:19:59.989Z,11.77
2023-01-08T19:22:26.905Z,11.74
2023-01-08T19:24:54.773Z,11.85
2023-01-08T19:27:21.786Z,12.02
2023-01-08T19:29:48.534Z,12.01
2023-01-08T19:32:15.454Z,11.92
2023-01-08T19:34:41.903Z,11.72
2023-01-08T19:37:08.812Z,12.05
2023-01-08T19:39:35.653Z,11.75
2023-01-08T19:42:20.589Z,11.60
2023-01-08T19:44:47.013Z,11.87
2023-01-08T19:47:13.506Z,11.77
2023-01-08T19:49:42.837Z,12.02
2023-01-08T19:52:09.290Z,12.18
2023-01-08T19:54:37.709Z,12.16
2023-01-08T19:57:04.144Z,12.14
2023-01-08T19:59:30.558Z,12.10
2023-01-08T20:01:57.172Z,11.90
2023-01-08T20:04:23.691Z,12.33
2023-01-08T20:06:52.303Z,12.01
2023-01-08T20:09:19.052Z,12.33
2023-01-08T20:11:45.431Z,12.10
2023-01-08T20:14:11.906Z,12.18
2023-01-08T20:16:38.388Z,12.18
2023-01-08T20:19:05.274Z,12.01
2023-01-08T20:21:33.688Z,12.21
2023-01-08T20:24:05.026Z,12.24
2023-01-08T20:26:31.944Z,11.96
2023-01-08T20:28:59.074Z,11.72
2023-01-08T20:31:29.472Z,12.12
2023-01-08T20:33:57.233Z,11.86
2023-01-08T20:36:27.704Z,12.03
2023-01-08T20:38:57.820Z,12.04
2023-01-08T20:41:26.336Z,11.57
2023-01-08T20:43:56.072Z,11.67
2023-01-08T20:46:28.493Z,11.87
2023-01-08T20:49:03.394Z,11.82
2023-01-08T20:51:36.070Z,11.81
2023-01-08T20:54:05.127Z,11.71
2023-01-08T20:56:31.622Z,11.34
2023-01-08T20:58:58.201Z,11.53
2023-01-08T21:01:28.177Z,11.48
2023-01-08T21:03:57.067Z,11.30
2023-01-08T21:06:25.760Z,11.41
2023-01-08T21:08:56.421Z,11.29
2023-01-08T21:11:23.981Z,11.29
2023-01-08T21:13:51.131Z,11.17
2023-01-08T21:16:22.924Z,11.05
2023-01-08T21:18:50.546Z,10.85
2023-01-08T21:21:23.336Z,11.01
2023-01-08T21:23:50.522Z,10.87
2023-01-08T21:26:17.899Z,10.86
2023-01-08T21:28:46.595Z,10.97
2023-01-08T21:31:17.672Z,10.98
2023-01-08T21:33:48.567Z,11.11
2023-01-08T21:36:20.582Z,10.99
2023-01-08T21:38:47.674Z,10.82
2023-01-08T21:41:38.563Z,10.93
2023-01-08T21:44:28.829Z,10.75
2023-01-08T21:46:55.267Z,10.63
2023-01-08T21:49:21.671Z,10.58
2023-01-08T21:52:06.554Z,10.53
2023-01-08T21:54:32.989Z,10.72
2023-01-08T21:56:59.399Z,10.96
2023-01-08T21:59:25.825Z,11.04
2023-01-08T22:01:52.259Z,10.95
2023-01-08T22:04:18.709Z,10.78
2023-01-08T22:06:45.140Z,11.02
2023-01-08T22:09:11.657Z,10.84
2023-01-08T22:11:38.110Z,10.93
2023-01-08T22:14:04.608Z,10.70
2023-01-08T22:16:31.178Z,10.49
2023-01-08T22:18:57.893Z,10.42
2023-01-08T22:21:24.392Z,10.54
2023-01-08T22:23:51.074Z,10.16
2023-01-08T22:26:20.076Z,10.37
2023-01-08T22:28:46.624Z,10.42
2023-01-08T22:31:14.944Z,10.51
2023-01-08T22:33:41.485Z,10.79
2023-01-08T22:36:11.046Z,10.53
2023-01-08T22:38:37.961Z,10.59
2023-01-08T22:41:04.599Z,10.70
2023-01-08T22:43:31.067Z,10.67
2023-01-08T22:45:59.580Z,10.61
2023-01-08T22:48:27.567Z,10.31
2023-01-08T22:50:54.009Z,10.41
2023-01-08T22:53:20.664Z,10.80
2023-01-08T22:55:47.958Z,10.46
2023-01-08T22:58:17.613Z,10.64
2023-01-08T23:00:44.684Z,10.63
2023-01-08T23:03:11.754Z,10.39
2023-01-08T23:05:38.191Z,10.59
2023-01-08T23:08:05.113Z,10.48
2023-01-08T23:10:31.981Z,10.62
2023-01-08T23:12:58.751Z,10.66
2023-01-08T23:15:25.444Z,10.55
2023-01-08T23:17:52.822Z,10.32
2023-01-08T23:20:20.809Z,10.43
2023-01-08T23:22:48.515Z,10.57
2023-01-08T23:25:15.516Z,10.80
2023-01-08T23:27:42.100Z,10.82
2023-01-08T23:30:09.108Z,10.67
2023-01-08T23:32:35.513Z,10.20
2023-01-08T23:35:01.974Z,9.90
2023-01-08T23:37:28.381Z,10.07
2023-01-08T23:39:54.787Z,9.85
2023-01-08T23:42:21.232Z,9.78
2023-01-08T23:44:49.503Z,9.61
2023-01-08T23:47:15.947Z,9.46
2023-01-08T23:49:42.375Z,9.47
2023-01-08T23:52:08.821Z,9.38
2023-01-08T23:54:35.883Z,9.38
2023-01-08T23:57:02.374Z,9.50
2023-01-08T23:59:28.815Z,9.41
